Tara — FVNM — position and weather

sailwx.info

Track history (hours):
 
Tides and Currents Weather Stations Pressure Air Temp Water Temp Dewpoint Dewpoint Depression Visibility Wind Speed Wind Dir Waves Ship Positions

Oceanographic research ship Tara (France)

Ex Antarctica.

Ship's website: http://www.taraexpeditions.org/site/index.php?id_lang_global_new=uk

Last reported at 2020-Aug-05 04:30 UTC. Time now 2020-Aug-05 05:36 UTC.
Position N 48°39' W 004°42'.

Length 36 m; beam 10 m.

Type: Ship. MMSI: 226070000.

Date/timePositionNaut miles runAvg speedWind from/ knotsBaromVisibWave heightAir tempDewpointWater temp
2020-Aug-05 04:30N 48°39' W 004°42'22 5.4
2020-Aug-05 00:28N 48°45' W 004°10'10 4.5
2020-Aug-04 22:22N 48°45' W 003°56'42 7.8
2020-Aug-04 17:00N 49°08' W 003°04'52 8.7
2020-Aug-04 11:00N 49°43' W 002°03'9 5.9
2020-Aug-04 09:30N 49°43' W 001°49'0 0.0
2020-Aug-04 08:54N 49°43' W 001°49'12 3.2
2020-Aug-04 05:00N 49°46' W 001°31'8 8.3
2020-Aug-04 04:00N 49°46' W 001°18'10 9.9
2020-Aug-04 03:00N 49°45' W 001°03'38 8.4
2020-Aug-03 22:30N 49°40' W 000°05'17 3.5
2020-Aug-03 17:30N 49°47' E 000°20'2 1.9
2020-Aug-03 16:30N 49°46' E 000°18'2 1.8
2020-Aug-03 15:31N 49°45' E 000°15'4 1.6
2020-Aug-03 12:55N 49°42' E 000°10'6 3.1
2020-Aug-03 11:01N 49°48' E 000°11'7 6.8
2020-Aug-03 10:00N 49°42' E 000°07'3 6.4
2020-Aug-03 09:30N 49°39' E 000°05'4 8.2
2020-Aug-03 09:00N 49°35' E 000°03'7 3.1
2020-Aug-03 06:53N 49°29' E 000°08'0 0.0
2020-Aug-03 05:28N 49°29' E 000°08'0 0.0
2020-Aug-03 04:29N 49°29' E 000°08'0 0.0
2020-Aug-03 03:26N 49°29' E 000°08'0 0.0
2020-Aug-03 00:00N 49°29' E 000°08'0 0.0
2020-Aug-02 17:28N 49°29' E 000°08'0 0.0
2020-Aug-02 16:29N 49°29' E 000°08'0 0.0
2020-Aug-02 13:30N 49°29' E 000°08'0 0.0
2020-Aug-02 12:55N 49°29' E 000°08'0 0.0
2020-Aug-02 12:29N 49°29' E 000°08'0 0.0
2020-Aug-02 10:28N 49°29' E 000°08'0 0.0
2020-Aug-02 09:58N 49°29' E 000°08'0 0.0
2020-Aug-02 06:30N 49°29' E 000°08'0 0.0
2020-Aug-02 04:55N 49°29' E 000°08'0 0.0
2020-Aug-02 04:29N 49°29' E 000°08'0 0.0
2020-Aug-02 03:59N 49°29' E 000°08'0 0.0
2020-Aug-02 03:00N 49°29' E 000°08'0 0.0
2020-Aug-02 01:59N 49°29' E 000°08'0 0.0
2020-Aug-02 01:00N 49°29' E 000°08'0 0.0
2020-Aug-01 22:30N 49°29' E 000°08'0 0.0
2020-Aug-01 16:00N 49°29' E 000°08'0 0.0
2020-Aug-01 13:58N 49°29' E 000°08'0 0.0
2020-Aug-01 11:30N 49°29' E 000°08'0 0.0
2020-Aug-01 09:28N 49°29' E 000°08'0 0.0
2020-Aug-01 05:30N 49°29' E 000°08'0 0.0
2020-Aug-01 02:36N 49°29' E 000°08'0 0.0
2020-Aug-01 02:30N 49°29' E 000°08'0 0.0
2020-Aug-01 00:15N 49°29' E 000°08'0 0.0
2020-Jul-31 23:39N 49°29' E 000°08'0 0.0
2020-Jul-31 21:15N 49°29' E 000°08'0 0.0
2020-Jul-31 15:19N 49°29' E 000°08'0 0.0
2020-Jul-31 11:31N 49°29' E 000°08'0 0.0
2020-Jul-31 10:00N 49°29' E 000°08'0 0.0
2020-Jul-31 06:28N 49°29' E 000°08'0 0.0
2020-Jul-31 05:58N 49°29' E 000°08'0 0.0
2020-Jul-31 04:58N 49°29' E 000°08'0 0.0
2020-Jul-31 03:58N 49°29' E 000°08'0 0.0
2020-Jul-31 00:58N 49°29' E 000°08'0 0.0
2020-Jul-31 00:28N 49°29' E 000°08'0 0.0
2020-Jul-30 22:28N 49°29' E 000°08'0 0.0
2020-Jul-30 21:28N 49°29' E 000°08'0 0.0
2020-Jul-30 20:28N 49°29' E 000°08'0 0.0
2020-Jul-30 19:28N 49°29' E 000°08'0 0.0
2020-Jul-30 13:28N 49°29' E 000°08'0 0.0
2020-Jul-30 10:26N 49°29' E 000°08'0 0.0
2020-Jul-30 08:59N 49°29' E 000°08'0 0.0
2020-Jul-30 08:14N 49°29' E 000°08'0 0.0
2020-Jul-30 05:59N 49°29' E 000°08'0 0.0
2020-Jul-30 03:59N 49°29' E 000°08'0 0.0
2020-Jul-29 20:58N 49°29' E 000°08'0 0.0
2020-Jul-29 20:28N 49°29' E 000°08'0 0.0
2020-Jul-29 19:15N 49°29' E 000°08'0 0.0
2020-Jul-29 16:57N 49°29' E 000°08'0 0.0
2020-Jul-29 16:22N 49°29' E 000°08'0 0.0
2020-Jul-29 15:28N 49°29' E 000°08'0 0.0
2020-Jul-29 04:59N 49°29' E 000°08'0 0.0
2020-Jul-29 02:58N 49°29' E 000°08'0 0.0
2020-Jul-29 00:57N 49°29' E 000°08'0 0.0
2020-Jul-28 23:30N 49°29' E 000°08'0 0.0
2020-Jul-28 19:18N 49°29' E 000°08'0 0.0
2020-Jul-28 16:54N 49°29' E 000°08'0 0.0
2020-Jul-28 15:00N 49°29' E 000°08'0 0.0
2020-Jul-28 11:30N 49°29' E 000°08'0 0.0
2020-Jul-28 10:27N 49°29' E 000°08'0 0.0
2020-Jul-28 09:08N 49°29' E 000°08'0 0.0
2020-Jul-28 06:29N 49°29' E 000°08'0 0.0
2020-Jul-28 05:06N 49°29' E 000°08'0 0.0
2020-Jul-28 01:30N 49°29' E 000°08'0 0.0
2020-Jul-27 22:42N 49°29' E 000°08'0 0.0
2020-Jul-27 16:46N 49°29' E 000°08'0 0.0
2020-Jul-27 16:10N 49°29' E 000°08'0 0.0
2020-Jul-27 15:46N 49°29' E 000°08'0 0.0
2020-Jul-27 14:51N 49°29' E 000°08'0 0.0
2020-Jul-27 14:27N 49°29' E 000°08'0 0.0
2020-Jul-27 11:54N 49°29' E 000°08'0 0.0
2020-Jul-27 09:59N 49°29' E 000°08'0 0.0
2020-Jul-27 09:02N 49°29' E 000°08'0 0.0
2020-Jul-27 07:51N 49°29' E 000°08'0 0.0
2020-Jul-27 06:30N 49°29' E 000°08'0 0.0
2020-Jul-27 05:30N 49°29' E 000°08'0 0.0
2020-Jul-27 04:29N 49°29' E 000°08'0 0.0
2020-Jul-27 03:24N 49°29' E 000°08'0 0.0
2020-Jul-27 02:57N 49°29' E 000°08'0 0.0
2020-Jul-27 02:18N 49°29' E 000°08'0 0.0
2020-Jul-27 01:54N 49°29' E 000°08'0 0.0
2020-Jul-27 00:56N 49°29' E 000°08'0 0.0
2020-Jul-26 20:24N 49°29' E 000°08'0 0.0
2020-Jul-26 17:48N 49°29' E 000°08'0 0.0
2020-Jul-26 17:30N 49°29' E 000°08'0 0.0
2020-Jul-26 15:33N 49°29' E 000°08'0 0.0
2020-Jul-26 11:39N 49°29' E 000°08'0 0.0
2020-Jul-26 09:00N 49°29' E 000°08'0 0.0
2020-Jul-26 07:29N 49°29' E 000°08'0 0.0
2020-Jul-26 05:19N 49°29' E 000°08'  
Track history (hours):
 
Tides and Currents Weather Stations Pressure Air Temp Water Temp Dewpoint Dewpoint Depression Visibility Wind Speed Wind Dir Waves Ship Positions

Oceanographic research ship Tara (France)

Ex Antarctica.

Ship's website: http://www.taraexpeditions.org/site/index.php?id_lang_global_new=uk

Last reported at 2020-Aug-05 04:30 UTC. Time now 2020-Aug-05 05:36 UTC.
Position N 48°39' W 004°42'.

Length 36 m; beam 10 m.

Type: Ship. MMSI: 226070000.

Date/timePositionNaut miles runAvg speedWind from/ knotsBaromVisibWave heightAir tempDewpointWater temp
2020-Aug-05 04:30N 48°39' W 004°42'22 5.4
2020-Aug-05 00:28N 48°45' W 004°10'10 4.5
2020-Aug-04 22:22N 48°45' W 003°56'42 7.8
2020-Aug-04 17:00N 49°08' W 003°04'52 8.7
2020-Aug-04 11:00N 49°43' W 002°03'9 5.9
2020-Aug-04 09:30N 49°43' W 001°49'0 0.0
2020-Aug-04 08:54N 49°43' W 001°49'12 3.2
2020-Aug-04 05:00N 49°46' W 001°31'8 8.3
2020-Aug-04 04:00N 49°46' W 001°18'10 9.9
2020-Aug-04 03:00N 49°45' W 001°03'38 8.4
2020-Aug-03 22:30N 49°40' W 000°05'17 3.5
2020-Aug-03 17:30N 49°47' E 000°20'2 1.9
2020-Aug-03 16:30N 49°46' E 000°18'2 1.8
2020-Aug-03 15:31N 49°45' E 000°15'4 1.6
2020-Aug-03 12:55N 49°42' E 000°10'6 3.1
2020-Aug-03 11:01N 49°48' E 000°11'7 6.8
2020-Aug-03 10:00N 49°42' E 000°07'3 6.4
2020-Aug-03 09:30N 49°39' E 000°05'4 8.2
2020-Aug-03 09:00N 49°35' E 000°03'7 3.1
2020-Aug-03 06:53N 49°29' E 000°08'0 0.0
2020-Aug-03 05:28N 49°29' E 000°08'0 0.0
2020-Aug-03 04:29N 49°29' E 000°08'0 0.0
2020-Aug-03 03:26N 49°29' E 000°08'0 0.0
2020-Aug-03 00:00N 49°29' E 000°08'0 0.0
2020-Aug-02 17:28N 49°29' E 000°08'0 0.0
2020-Aug-02 16:29N 49°29' E 000°08'0 0.0
2020-Aug-02 13:30N 49°29' E 000°08'0 0.0
2020-Aug-02 12:55N 49°29' E 000°08'0 0.0
2020-Aug-02 12:29N 49°29' E 000°08'0 0.0
2020-Aug-02 10:28N 49°29' E 000°08'0 0.0
2020-Aug-02 09:58N 49°29' E 000°08'0 0.0
2020-Aug-02 06:30N 49°29' E 000°08'0 0.0
2020-Aug-02 04:55N 49°29' E 000°08'0 0.0
2020-Aug-02 04:29N 49°29' E 000°08'0 0.0
2020-Aug-02 03:59N 49°29' E 000°08'0 0.0
2020-Aug-02 03:00N 49°29' E 000°08'0 0.0
2020-Aug-02 01:59N 49°29' E 000°08'0 0.0
2020-Aug-02 01:00N 49°29' E 000°08'0 0.0
2020-Aug-01 22:30N 49°29' E 000°08'0 0.0
2020-Aug-01 16:00N 49°29' E 000°08'0 0.0
2020-Aug-01 13:58N 49°29' E 000°08'0 0.0
2020-Aug-01 11:30N 49°29' E 000°08'0 0.0
2020-Aug-01 09:28N 49°29' E 000°08'0 0.0
2020-Aug-01 05:30N 49°29' E 000°08'0 0.0
2020-Aug-01 02:36N 49°29' E 000°08'0 0.0
2020-Aug-01 02:30N 49°29' E 000°08'0 0.0
2020-Aug-01 00:15N 49°29' E 000°08'0 0.0
2020-Jul-31 23:39N 49°29' E 000°08'0 0.0
2020-Jul-31 21:15N 49°29' E 000°08'0 0.0
2020-Jul-31 15:19N 49°29' E 000°08'0 0.0
2020-Jul-31 11:31N 49°29' E 000°08'0 0.0
2020-Jul-31 10:00N 49°29' E 000°08'0 0.0
2020-Jul-31 06:28N 49°29' E 000°08'0 0.0
2020-Jul-31 05:58N 49°29' E 000°08'0 0.0
2020-Jul-31 04:58N 49°29' E 000°08'0 0.0
2020-Jul-31 03:58N 49°29' E 000°08'0 0.0
2020-Jul-31 00:58N 49°29' E 000°08'0 0.0
2020-Jul-31 00:28N 49°29' E 000°08'0 0.0
2020-Jul-30 22:28N 49°29' E 000°08'0 0.0
2020-Jul-30 21:28N 49°29' E 000°08'0 0.0
2020-Jul-30 20:28N 49°29' E 000°08'0 0.0
2020-Jul-30 19:28N 49°29' E 000°08'0 0.0
2020-Jul-30 13:28N 49°29' E 000°08'0 0.0
2020-Jul-30 10:26N 49°29' E 000°08'0 0.0
2020-Jul-30 08:59N 49°29' E 000°08'0 0.0
2020-Jul-30 08:14N 49°29' E 000°08'0 0.0
2020-Jul-30 05:59N 49°29' E 000°08'0 0.0
2020-Jul-30 03:59N 49°29' E 000°08'0 0.0
2020-Jul-29 20:58N 49°29' E 000°08'0 0.0
2020-Jul-29 20:28N 49°29' E 000°08'0 0.0
2020-Jul-29 19:15N 49°29' E 000°08'0 0.0
2020-Jul-29 16:57N 49°29' E 000°08'0 0.0
2020-Jul-29 16:22N 49°29' E 000°08'0 0.0
2020-Jul-29 15:28N 49°29' E 000°08'0 0.0
2020-Jul-29 04:59N 49°29' E 000°08'0 0.0
2020-Jul-29 02:58N 49°29' E 000°08'0 0.0
2020-Jul-29 00:57N 49°29' E 000°08'0 0.0
2020-Jul-28 23:30N 49°29' E 000°08'0 0.0
2020-Jul-28 19:18N 49°29' E 000°08'0 0.0
2020-Jul-28 16:54N 49°29' E 000°08'0 0.0
2020-Jul-28 15:00N 49°29' E 000°08'0 0.0
2020-Jul-28 11:30N 49°29' E 000°08'0 0.0
2020-Jul-28 10:27N 49°29' E 000°08'0 0.0
2020-Jul-28 09:08N 49°29' E 000°08'0 0.0
2020-Jul-28 06:29N 49°29' E 000°08'0 0.0
2020-Jul-28 05:06N 49°29' E 000°08'0 0.0
2020-Jul-28 01:30N 49°29' E 000°08'0 0.0
2020-Jul-27 22:42N 49°29' E 000°08'0 0.0
2020-Jul-27 16:46N 49°29' E 000°08'0 0.0
2020-Jul-27 16:10N 49°29' E 000°08'0 0.0
2020-Jul-27 15:46N 49°29' E 000°08'0 0.0
2020-Jul-27 14:51N 49°29' E 000°08'0 0.0
2020-Jul-27 14:27N 49°29' E 000°08'0 0.0
2020-Jul-27 11:54N 49°29' E 000°08'0 0.0
2020-Jul-27 09:59N 49°29' E 000°08'0 0.0
2020-Jul-27 09:02N 49°29' E 000°08'0 0.0
2020-Jul-27 07:51N 49°29' E 000°08'0 0.0
2020-Jul-27 06:30N 49°29' E 000°08'0 0.0
2020-Jul-27 05:30N 49°29' E 000°08'0 0.0
2020-Jul-27 04:29N 49°29' E 000°08'0 0.0
2020-Jul-27 03:24N 49°29' E 000°08'0 0.0
2020-Jul-27 02:57N 49°29' E 000°08'0 0.0
2020-Jul-27 02:18N 49°29' E 000°08'0 0.0
2020-Jul-27 01:54N 49°29' E 000°08'0 0.0
2020-Jul-27 00:56N 49°29' E 000°08'0 0.0
2020-Jul-26 20:24N 49°29' E 000°08'0 0.0
2020-Jul-26 17:48N 49°29' E 000°08'0 0.0
2020-Jul-26 17:30N 49°29' E 000°08'0 0.0
2020-Jul-26 15:33N 49°29' E 000°08'0 0.0
2020-Jul-26 11:39N 49°29' E 000°08'0 0.0
2020-Jul-26 09:00N 49°29' E 000°08'0 0.0
2020-Jul-26 07:29N 49°29' E 000°08'0 0.0
2020-Jul-26 05:19N 49°29' E 000°08'  

Dump ship's entire track history